• Join FlightAware (Why Join?)
  • Login
  • US Flag 
03:01PM EDT


 

Airport Tracker/Info


-or-


 

Live Flight TrackerFlight Track Log ✈ N110HM ✈ 27-Apr-2012 ✈ KDFW - KRDU

Flight Track Log - Related Links

Times and Time Zones

All times are in EDT time to prevent confusion due to time zone crossing. See the N110HM flight status page for this flight to view local times or setup timezone preferences in your user account.

Time Position Orientation Groundspeed Altitude Reporting Facility
EDT Latitude Longitude Course Direction KTS MPH feet Rate Location/Type
09:31PM 32.8660 -97.0247 277° West  Level FlightAware Approximate
09:32PM 32.8667 -97.0311 165° South 162 186 2,300  Level FAA TRACON SMA TRACON (SMA)
09:32PM 32.8383 -97.0222 155° Southeast 174 200 3,400 1,860 Climbing FAA TRACON SMA TRACON (SMA)
09:33PM 32.8053 -97.0039 145° Southeast 195 224 4,800 1,500 Climbing FAA TRACON SMA TRACON (SMA)
09:34PM 32.7692 -96.9739 93° East 254 292 5,500 1,620 Climbing FAA TRACON SMA TRACON (SMA)
09:34PM 32.7664 -96.9075 87° East 302 348 7,000 2,100 Climbing FAA TRACON SMA TRACON (SMA)
09:35PM 32.7694 -96.8436 70° East 319 367 8,300 2,400 Climbing FAA TRACON SMA TRACON (SMA)
09:36PM 32.7906 -96.7733 65° Northeast 336 387 10,200 2,040 Climbing FAA TRACON SMA TRACON (SMA)
09:36PM 32.8194 -96.7008 64° Northeast 351 404 11,100 1,380 Climbing FAA TRACON SMA TRACON (SMA)
09:37PM 32.8481 -96.6297 63° Northeast 388 447 12,100 1,800 Climbing FAA TRACON SMA TRACON (SMA)
09:38PM 32.8839 -96.5467 64° Northeast 409 471 13,500 2,460 Climbing FAA TRACON SMA TRACON (SMA)
09:38PM 32.9197 -96.4608 61° Northeast 417 480 15,400 2,520 Climbing FAA TRACON SMA TRACON (SMA)
09:39PM 32.9544 -96.3853 70° East 423 487 16,900 2,280 Climbing FAA TRACON SMA TRACON (SMA)
09:40PM 32.9819 -96.2936 77° East 428 493 18,500 2,160 Climbing FAA TRACON SMA TRACON (SMA)
09:40PM 33.0008 -96.1956 67° East 441 507 19,800 1,680 Climbing FAA TRACON SMA TRACON (SMA)
09:41PM 33.0303 -96.1111 68° East 449 517 20,800 1,620 Climbing FAA TRACON SMA TRACON (SMA)
09:42PM 33.0631 -96.0144 69° East 455 524 22,000 1,680 Climbing FAA TRACON SMA TRACON (SMA)
09:42PM 33.0950 -95.9156 80° East 462 532 23,100 1,380 Climbing FAA TRACON SMA TRACON (SMA)
09:43PM 33.1056 -95.8461 71° East 458 527 23,800 1,320 Climbing Fort Worth Center
09:44PM 33.1494 -95.6964 72° East 472 543 25,300 1,320 Climbing Fort Worth Center
09:45PM 33.1892 -95.5492 72° East 472 543 26,500 1,140 Climbing Fort Worth Center
09:46PM 33.2325 -95.3919 70° East 477 549 27,600 1,320 Climbing Fort Worth Center
09:47PM 33.2800 -95.2367 72° East 488 562 29,200 1,440 Climbing Fort Worth Center
09:48PM 33.3231 -95.0792 70° East 488 562 30,500 1,200 Climbing Fort Worth Center
09:49PM 33.3683 -94.9261 71° East 488 562 31,600 1,020 Climbing Fort Worth Center
09:50PM 33.4131 -94.7731 71° East 488 562 32,600 660 Climbing Fort Worth Center
09:51PM 33.4578 -94.6175 72° East 488 562 33,000 180 Climbing Fort Worth Center
09:52PM 33.5003 -94.4642 71° East 488 562 33,000  Level Fort Worth Center
09:53PM 33.5444 -94.3106 71° East 488 562 33,000  Level Fort Worth Center
09:54PM 33.5867 -94.1594 72° East 488 562 33,000  Level Fort Worth Center
09:55PM 33.6342 -93.9881 72° East 488 562 33,000  Level Fort Worth Center
09:56PM 33.6758 -93.8317 72° East 488 562 33,000  Level Fort Worth Center
09:57PM 33.7172 -93.6803 73° East 483 556 33,000  Level Fort Worth Center
09:58PM 33.7569 -93.5253 72° East 484 557 33,000  Level Memphis Center
09:59PM 33.7983 -93.3742 71° East 484 557 33,000 -60 Level Memphis Center
10:00PM 33.8417 -93.2208 73° East 479 551 32,900  Descending Memphis Center
10:01PM 33.8803 -93.0694 72° East 479 551 33,000 60 Climbing Memphis Center
10:02PM 33.9211 -92.9181 73° East 479 551 33,100  Climbing Memphis Center
10:03PM 33.9597 -92.7639 72° East 479 551 33,000 -60 Descending Memphis Center
10:04PM 34.0022 -92.6097 72° East 479 551 33,000  Level Memphis Center
10:05PM 34.0425 -92.4553 75° East 479 551 33,000  Level Memphis Center
10:06PM 34.0808 -92.2831 72° East 479 551 33,000  Level Memphis Center
10:07PM 34.1206 -92.1336 74° East 474 545 33,100  Climbing Memphis Center
10:08PM 34.1581 -91.9786 72° East 474 545 33,000 -60 Descending Memphis Center
10:09PM 34.1997 -91.8239 74° East 474 545 33,000  Level Memphis Center
10:10PM 34.2347 -91.6711 72° East 474 545 33,000  Level Memphis Center
10:11PM 34.2758 -91.5158 73° East 474 545 33,000  Level Memphis Center
10:12PM 34.3147 -91.3656 74° East 466 536 33,100  Climbing Memphis Center
10:13PM 34.3514 -91.2150 74° East 466 536 33,000 -120 Descending Memphis Center
10:14PM 34.3878 -91.0619 73° East 466 536 32,900 -60 Descending Memphis Center
10:15PM 34.4261 -90.9111 73° East 466 536 32,900  Level Memphis Center
10:16PM 34.4642 -90.7578 74° East 471 542 33,000 60 Climbing Memphis Center
10:17PM 34.5000 -90.6042 74° East 471 542 33,100  Climbing Memphis Center
10:18PM 34.5358 -90.4528 73° East 471 542 33,000 -60 Descending Memphis Center
10:19PM 34.5733 -90.3017 74° East 471 542 33,000 -60 Level Memphis Center
10:20PM 34.6086 -90.1478 74° East 471 542 32,900 -60 Descending Memphis Center
10:21PM 34.6397 -90.0139 75° East 466 536 32,900  Level Memphis Center
10:22PM 34.6744 -89.8572 76° East 472 543 33,000  Climbing Memphis Center
10:23PM 34.7114 -89.6800 72° East 477 549 33,000  Level Memphis Center
10:24PM 34.7519 -89.5231 74° East 482 555 33,000  Level Memphis Center
10:25PM 34.7883 -89.3658 73° East 482 555 33,100  Climbing Memphis Center
10:26PM 34.8267 -89.2086 74° East 477 549 33,000  Descending Memphis Center
10:27PM 34.8586 -89.0689 74° East 477 549 33,100  Climbing Memphis Center
10:28PM 34.8944 -88.9114 75° East 482 555 33,000 -60 Descending Memphis Center
10:29PM 34.9281 -88.7539 74° East 477 549 33,000  Level Memphis Center
10:30PM 34.9656 -88.5986 75° East 477 549 33,000  Level Memphis Center
10:31PM 34.9989 -88.4483 75° East 477 549 33,000  Level Memphis Center
10:32PM 35.0339 -88.2903 75° East 465 535 33,000  Level Memphis Center
10:33PM 35.0686 -88.1269 75° East 487 560 33,000  Level Memphis Center
10:34PM 35.1050 -87.9558 74° East 487 560 33,100  Climbing Memphis Center
10:35PM 35.1358 -87.8231 75° East 475 547 33,000 -120 Descending Memphis Center
10:36PM 35.1739 -87.6492 75° East 469 540 32,900  Descending Memphis Center
10:38PM 35.2425 -87.3269 76° East 488 562 33,000 60 Climbing Atlanta Center
10:39PM 35.2758 -87.1653 76° East 488 562 33,100  Climbing Atlanta Center
10:40PM 35.3069 -87.0114 77° East 488 562 33,000 -60 Descending Atlanta Center
10:41PM 35.3378 -86.8519 75° East 483 556 33,000  Level Atlanta Center
10:42PM 35.3725 -86.6928 76° East 483 556 33,000  Level Atlanta Center
10:43PM 35.4075 -86.5206 78° East 478 550 33,000  Level Atlanta Center
10:44PM 35.4356 -86.3608 76° East 473 544 33,000  Level Atlanta Center
10:45PM 35.4678 -86.2036 76° East 473 544 33,000  Level Atlanta Center
10:46PM 35.4950 -86.0642 76° East 464 534 33,000  Level Atlanta Center
10:47PM 35.5267 -85.9092 77° East 464 534 33,000 -60 Level Atlanta Center
10:48PM 35.5561 -85.7542 77° East 470 541 32,900 -60 Descending Atlanta Center
10:49PM 35.5853 -85.5964 75° East 470 541 32,900 60 Level Atlanta Center
10:50PM 35.6186 -85.4386 77° East 470 541 33,100 60 Climbing Atlanta Center
10:51PM 35.6472 -85.2833 77° East 470 541 33,100 -60 Level Atlanta Center
10:52PM 35.6758 -85.1253 77° East 470 541 33,000 -120 Descending Atlanta Center
10:53PM 35.7044 -84.9722 77° East 470 541 32,900  Descending Atlanta Center
10:54PM 35.7347 -84.8089 74° East 470 541 33,000  Climbing Atlanta Center
10:55PM 35.7711 -84.6531 63° Northeast 470 541 32,900  Descending Atlanta Center
10:56PM 35.8300 -84.5100 65° Northeast 465 535 33,000 60 Climbing Atlanta Center
10:57PM 35.8869 -84.3592 67° East 472 543 33,100  Climbing Atlanta Center
10:58PM 35.9392 -84.2081 67° East 477 549 33,100  Level Atlanta Center
10:59PM 35.9917 -84.0542 67° East 477 549 33,100  Level Atlanta Center
11:00PM 36.0436 -83.9053 67° East 477 549 33,100 -60 Level Atlanta Center
11:01PM 36.0956 -83.7561 68° East 472 543 33,000 -120 Descending Atlanta Center
11:02PM 36.1450 -83.6067 68° East 472 543 32,900 -60 Descending Atlanta Center
11:03PM 36.1986 -83.4444 67° East 464 534 32,900  Level Atlanta Center
11:04PM 36.2519 -83.2919 68° East 469 540 33,000 60 Climbing Atlanta Center
11:05PM 36.3011 -83.1397 67° East 474 545 33,100  Climbing Atlanta Center
11:06PM 36.3519 -82.9894 67° East 474 545 33,100  Level Atlanta Center
11:07PM 36.4028 -82.8367 67° East 474 545 33,100 -60 Level Atlanta Center
11:08PM 36.4553 -82.6836 68° East 474 545 33,000 -60 Descending Atlanta Center
11:09PM 36.5036 -82.5331 67° East 474 545 33,000 -60 Level Atlanta Center
11:10PM 36.5539 -82.3872 68° East 463 533 32,900 -60 Descending Atlanta Center
11:11PM 36.6019 -82.2364 67° East 458 527 32,900  Level Atlanta Center
11:12PM 36.6539 -82.0850 69° East 458 527 33,000 60 Climbing Atlanta Center
11:13PM 36.7014 -81.9311 68° East 463 533 33,100  Climbing Atlanta Center
11:14PM 36.7508 -81.7797 68° East 470 541 33,100 -60 Level Atlanta Center
11:15PM 36.8000 -81.6253 70° East 475 547 33,000 -600 Descending Atlanta Center
11:16PM 36.8389 -81.4892 67° East 470 541 32,000 -1,260 Descending Atlanta Center
11:17PM 36.8897 -81.3397 70° East 470 541 30,500 -1,680 Descending Atlanta Center
11:18PM 36.9364 -81.1822 68° East 475 547 28,700 -1,800 Descending Atlanta Center
11:19PM 36.9906 -81.0114 71° East 475 547 27,000 -540 Descending Atlanta Center
11:22PM 37.0856 -80.6639 95° East 477 549 27,000  Level Washington Center
11:23PM 37.0725 -80.4781 94° East 471 542 27,000  Level Washington Center
11:23PM 37.0625 -80.3056 94° East 479 551 27,000  Level Washington Center
11:25PM 37.0525 -80.1383 103° East 479 551 27,000 -180 Level Washington Center
11:26PM 37.0244 -79.9911 113° Southeast 484 557 26,700 -720 Descending Washington Center
11:27PM 36.9717 -79.8372 114° Southeast 484 557 25,600 -1,080 Descending Washington Center
11:28PM 36.9183 -79.6889 115° Southeast 479 551 24,600 -1,260 Descending Washington Center
11:29PM 36.8572 -79.5272 135° Southeast 465 535 23,200 -1,440 Descending Washington Center
11:30PM 36.7708 -79.4192 134° Southeast 452 520 21,800 -1,560 Descending Washington Center
11:31PM 36.6867 -79.3114 134° Southeast 441 507 20,100 -1,920 Descending Washington Center
11:32PM 36.6064 -79.2067 135° Southeast 430 495 18,000 -2,400 Descending Washington Center
11:33PM 36.5300 -79.1125 135° Southeast 406 467 15,300 -3,000 Descending Washington Center
11:33PM 36.4856 -79.0564 131° Southeast 384 442 13,300 -2,100 Descending Washington Center
11:34PM 36.4175 -78.9603 160° South 373 429 12,000 -660 Descending Washington Center
11:35PM 36.3228 -78.9178 174° South 361 415 12,000 -420 Level Washington Center
11:36PM 36.2353 -78.9061 185° South 313 360 11,200 -1,200 Descending Washington Center
11:37PM 36.1539 -78.9156 183° South 301 346 9,700 -1,500 Descending Washington Center
11:38PM 36.0722 -78.9200 187° South 289 333 8,200 -1,740 Descending Washington Center
11:39PM 35.9947 -78.9319 189° South 269 310 6,200 -2,160 Descending Washington Center
11:40PM 35.9297 -78.9447 189° South 245 282 3,900 -2,340 Descending Washington Center